createdAt,value
2024-01-14T00:00:38.910Z,0
2024-01-14T00:01:38.715Z,0
2024-01-14T00:02:38.686Z,0
2024-01-14T00:03:38.803Z,0
2024-01-14T00:04:38.795Z,0
2024-01-14T00:05:38.749Z,0
2024-01-14T00:06:38.699Z,0
2024-01-14T00:07:38.719Z,0
2024-01-14T00:08:38.695Z,0
2024-01-14T00:09:38.718Z,0
2024-01-14T00:10:38.677Z,0
2024-01-14T00:11:38.709Z,0
2024-01-14T00:12:38.677Z,0
2024-01-14T00:13:38.709Z,0
2024-01-14T00:14:39.054Z,0
2024-01-14T00:15:38.750Z,0
2024-01-14T00:16:38.697Z,0
2024-01-14T00:17:38.813Z,0
2024-01-14T00:18:38.876Z,0
2024-01-14T00:19:38.946Z,0
2024-01-14T00:20:38.725Z,0
2024-01-14T00:21:38.770Z,0
2024-01-14T00:22:38.700Z,0
2024-01-14T00:23:38.712Z,0
2024-01-14T00:24:38.707Z,0
2024-01-14T00:25:38.694Z,0
2024-01-14T00:26:38.730Z,0
2024-01-14T00:27:38.702Z,0
2024-01-14T00:28:38.691Z,0
2024-01-14T00:29:38.706Z,0
2024-01-14T00:30:38.747Z,0
2024-01-14T00:31:38.772Z,0
2024-01-14T00:32:38.712Z,0
2024-01-14T00:33:38.772Z,0
2024-01-14T00:34:38.730Z,0
2024-01-14T00:35:40.404Z,0
2024-01-14T00:36:38.742Z,0
2024-01-14T00:37:38.686Z,0
2024-01-14T00:38:38.694Z,0
2024-01-14T00:39:38.721Z,0
2024-01-14T00:40:38.684Z,0
2024-01-14T00:41:38.671Z,0
2024-01-14T00:42:38.716Z,0
2024-01-14T00:43:38.619Z,0
2024-01-14T00:44:38.690Z,0
2024-01-14T00:45:38.705Z,0
2024-01-14T00:46:38.709Z,0
2024-01-14T00:47:38.700Z,0
2024-01-14T00:48:38.803Z,0
2024-01-14T00:49:38.858Z,0
2024-01-14T00:50:38.665Z,0
2024-01-14T00:51:38.835Z,0
2024-01-14T00:52:38.685Z,0
2024-01-14T00:53:38.682Z,0
2024-01-14T00:54:38.725Z,0
2024-01-14T00:55:38.672Z,0
2024-01-14T00:56:38.681Z,0
2024-01-14T00:57:38.738Z,0
2024-01-14T00:58:38.689Z,0
2024-01-14T00:59:38.676Z,0
2024-01-14T01:00:38.812Z,0
2024-01-14T01:01:38.684Z,0
2024-01-14T01:02:38.679Z,0
2024-01-14T01:03:38.729Z,0
2024-01-14T01:04:38.759Z,0
2024-01-14T01:05:38.822Z,0
2024-01-14T01:06:38.772Z,0
2024-01-14T01:07:38.681Z,0
2024-01-14T01:08:38.660Z,0
2024-01-14T01:09:38.701Z,0
2024-01-14T01:10:38.673Z,0
2024-01-14T01:11:38.688Z,0
2024-01-14T01:12:38.745Z,0
2024-01-14T01:13:38.687Z,0
2024-01-14T01:14:38.679Z,0
2024-01-14T01:15:38.760Z,0
2024-01-14T01:16:38.677Z,0
2024-01-14T01:17:38.705Z,0
2024-01-14T01:18:38.866Z,0
2024-01-14T01:19:38.809Z,0
2024-01-14T01:20:38.690Z,0
2024-01-14T01:21:38.709Z,0
2024-01-14T01:22:38.719Z,0
2024-01-14T01:23:38.745Z,0
2024-01-14T01:24:38.731Z,0
2024-01-14T01:25:38.693Z,0
2024-01-14T01:26:38.703Z,0
2024-01-14T01:27:38.741Z,0
2024-01-14T01:28:38.704Z,0
2024-01-14T01:29:38.685Z,0
2024-01-14T01:30:38.744Z,0
2024-01-14T01:31:46.132Z,0
2024-01-14T01:32:38.805Z,0
2024-01-14T01:33:38.849Z,0
2024-01-14T01:34:39.047Z,0
2024-01-14T01:35:38.698Z,0
2024-01-14T01:36:38.749Z,0
2024-01-14T01:37:38.682Z,0
2024-01-14T01:38:38.704Z,0
2024-01-14T01:39:38.699Z,0
2024-01-14T01:40:38.707Z,0
2024-01-14T01:41:38.709Z,0
2024-01-14T01:42:38.717Z,0
2024-01-14T01:43:38.705Z,0
2024-01-14T01:44:38.682Z,0
2024-01-14T01:45:38.708Z,0
2024-01-14T01:46:38.723Z,0
2024-01-14T01:47:38.734Z,0
2024-01-14T01:48:38.849Z,0
2024-01-14T01:49:38.756Z,0
2024-01-14T01:50:38.726Z,0
2024-01-14T01:51:38.682Z,0
2024-01-14T01:52:38.707Z,0
2024-01-14T01:53:38.668Z,0
2024-01-14T01:54:38.705Z,0
2024-01-14T01:55:38.691Z,0
2024-01-14T01:56:38.704Z,0
2024-01-14T01:57:38.709Z,0
2024-01-14T01:58:38.692Z,0
2024-01-14T01:59:38.703Z,0
2024-01-14T02:00:38.828Z,0
2024-01-14T02:01:38.721Z,0
2024-01-14T02:02:38.724Z,0
2024-01-14T02:03:38.871Z,0
2024-01-14T02:04:38.759Z,0
2024-01-14T02:05:38.723Z,0
2024-01-14T02:06:38.745Z,0
2024-01-14T02:07:38.701Z,0
2024-01-14T02:08:38.706Z,0
2024-01-14T02:09:38.701Z,0
2024-01-14T02:10:38.712Z,0
2024-01-14T02:11:38.690Z,0
2024-01-14T02:12:38.752Z,0
2024-01-14T02:13:38.667Z,0
2024-01-14T02:14:38.684Z,0
2024-01-14T02:15:38.759Z,0
2024-01-14T02:16:38.692Z,0
2024-01-14T02:17:38.767Z,0
2024-01-14T02:18:38.795Z,0
2024-01-14T02:19:38.797Z,0
2024-01-14T02:20:38.693Z,0
2024-01-14T02:21:38.670Z,0
2024-01-14T02:22:38.665Z,0
2024-01-14T02:23:38.637Z,0
2024-01-14T02:24:38.658Z,0
2024-01-14T02:25:38.662Z,0
2024-01-14T02:26:38.686Z,0
2024-01-14T02:27:38.767Z,0
2024-01-14T02:28:38.690Z,0
2024-01-14T02:29:38.679Z,0
2024-01-14T02:30:38.754Z,0
2024-01-14T02:31:38.643Z,0
2024-01-14T02:32:38.856Z,0
2024-01-14T02:33:38.778Z,0
2024-01-14T02:34:38.972Z,0
2024-01-14T02:35:38.677Z,0
2024-01-14T02:36:38.666Z,0
2024-01-14T02:37:38.682Z,0
2024-01-14T02:38:38.662Z,0
2024-01-14T02:39:38.794Z,0
2024-01-14T02:40:38.678Z,0
2024-01-14T02:41:38.662Z,0
2024-01-14T02:42:38.713Z,0
2024-01-14T02:43:38.643Z,0
2024-01-14T02:44:38.666Z,0
2024-01-14T02:45:38.781Z,0
2024-01-14T02:46:38.681Z,0
2024-01-14T02:47:38.750Z,0
2024-01-14T02:48:38.799Z,0
2024-01-14T02:49:38.685Z,0
2024-01-14T02:50:38.667Z,0
2024-01-14T02:51:38.768Z,0
2024-01-14T02:52:38.689Z,0
2024-01-14T02:53:38.696Z,0
2024-01-14T02:54:38.720Z,0
2024-01-14T02:55:38.705Z,0
2024-01-14T02:56:38.675Z,0
2024-01-14T02:57:38.744Z,0
2024-01-14T02:58:38.709Z,0
2024-01-14T02:59:38.702Z,0
2024-01-14T03:00:38.853Z,0
2024-01-14T03:01:38.682Z,0
2024-01-14T03:02:38.752Z,0
2024-01-14T03:03:38.745Z,0
2024-01-14T03:04:38.710Z,0
2024-01-14T03:05:38.715Z,0
2024-01-14T03:06:38.716Z,0
2024-01-14T03:07:38.726Z,0
2024-01-14T03:08:38.690Z,0
2024-01-14T03:09:38.708Z,0
2024-01-14T03:10:38.704Z,0
2024-01-14T03:11:38.715Z,0
2024-01-14T03:12:38.739Z,0
2024-01-14T03:13:38.699Z,0
2024-01-14T03:14:38.696Z,0
2024-01-14T03:15:38.712Z,0
2024-01-14T03:16:38.715Z,0
2024-01-14T03:17:38.789Z,0
2024-01-14T03:18:38.850Z,0
2024-01-14T03:19:38.846Z,0
2024-01-14T03:20:38.710Z,0
2024-01-14T03:21:38.707Z,0
2024-01-14T03:22:38.690Z,0
2024-01-14T03:23:38.648Z,0
2024-01-14T03:24:38.693Z,0
2024-01-14T03:25:38.710Z,0
2024-01-14T03:26:38.737Z,0
2024-01-14T03:27:38.731Z,0
2024-01-14T03:28:38.696Z,0
2024-01-14T03:29:38.691Z,0
2024-01-14T03:30:38.828Z,0
2024-01-14T03:31:38.684Z,0
2024-01-14T03:32:38.713Z,0
2024-01-14T03:33:38.821Z,0
2024-01-14T03:34:38.748Z,0
2024-01-14T03:35:38.710Z,0
2024-01-14T03:36:38.717Z,0
2024-01-14T03:37:38.704Z,0
2024-01-14T03:38:38.689Z,0
2024-01-14T03:39:38.720Z,0
2024-01-14T03:40:38.701Z,0
2024-01-14T03:41:38.650Z,0
2024-01-14T03:42:38.738Z,0
2024-01-14T03:43:38.777Z,0
2024-01-14T03:44:38.691Z,0
2024-01-14T03:45:38.732Z,0
2024-01-14T03:46:38.721Z,0
2024-01-14T03:47:38.717Z,0
2024-01-14T03:48:38.892Z,0
2024-01-14T03:49:38.884Z,0
2024-01-14T03:50:38.679Z,0
2024-01-14T03:51:38.730Z,0
2024-01-14T03:52:38.675Z,0
2024-01-14T03:53:38.687Z,0
2024-01-14T03:54:38.758Z,0
2024-01-14T03:55:38.682Z,0
2024-01-14T03:56:38.705Z,0
2024-01-14T03:57:38.719Z,0
2024-01-14T03:58:38.692Z,0
2024-01-14T03:59:38.696Z,0
2024-01-14T04:00:38.719Z,0
2024-01-14T04:01:38.687Z,0
2024-01-14T04:02:38.698Z,0
2024-01-14T04:03:38.717Z,0
2024-01-14T04:04:38.764Z,0
2024-01-14T04:05:38.656Z,0
2024-01-14T04:06:38.828Z,0
2024-01-14T04:07:38.668Z,0
2024-01-14T04:08:38.653Z,0
2024-01-14T04:09:38.784Z,0
2024-01-14T04:10:38.693Z,0
2024-01-14T04:11:38.689Z,0
2024-01-14T04:12:38.744Z,0
2024-01-14T04:13:38.687Z,0
2024-01-14T04:14:38.674Z,0
2024-01-14T04:15:38.783Z,0
2024-01-14T04:16:38.692Z,0
2024-01-14T04:17:38.699Z,0
2024-01-14T04:18:38.700Z,0
2024-01-14T04:19:38.744Z,0
2024-01-14T04:20:38.680Z,0
2024-01-14T04:21:38.776Z,0
2024-01-14T04:22:38.688Z,0
2024-01-14T04:23:38.663Z,0
2024-01-14T04:24:38.706Z,0
2024-01-14T04:25:38.690Z,0
2024-01-14T04:26:38.692Z,0
2024-01-14T04:27:38.762Z,0
2024-01-14T04:28:38.662Z,0
2024-01-14T04:29:38.699Z,0
2024-01-14T04:30:38.781Z,0
2024-01-14T04:31:38.698Z,0
2024-01-14T04:32:38.695Z,0
2024-01-14T04:33:38.788Z,0
2024-01-14T04:34:38.662Z,0
2024-01-14T04:35:38.685Z,0
2024-01-14T04:36:38.782Z,0
2024-01-14T04:37:38.697Z,0
2024-01-14T04:38:38.695Z,0
2024-01-14T04:39:38.692Z,0
2024-01-14T04:40:38.697Z,0
2024-01-14T04:41:38.686Z,0
2024-01-14T04:42:38.740Z,0
2024-01-14T04:43:38.680Z,0
2024-01-14T04:44:38.656Z,0
2024-01-14T04:45:38.714Z,0
2024-01-14T04:46:38.683Z,0
2024-01-14T04:47:38.790Z,0
2024-01-14T04:48:38.903Z,0
2024-01-14T04:49:38.760Z,0
2024-01-14T04:50:38.790Z,0
2024-01-14T04:51:38.751Z,0
2024-01-14T04:52:38.703Z,0
2024-01-14T04:53:38.674Z,0
2024-01-14T04:54:38.681Z,0
2024-01-14T04:55:38.660Z,0
2024-01-14T04:56:38.660Z,0
2024-01-14T04:57:38.691Z,0
2024-01-14T04:58:38.681Z,0
2024-01-14T04:59:38.676Z,0
2024-01-14T05:00:38.832Z,0
2024-01-14T05:01:38.673Z,0
2024-01-14T05:02:38.681Z,0
2024-01-14T05:03:38.799Z,0
2024-01-14T05:04:38.690Z,0
2024-01-14T05:05:38.675Z,0
2024-01-14T05:06:38.720Z,0
2024-01-14T05:07:38.680Z,0
2024-01-14T05:08:38.632Z,0
2024-01-14T05:09:38.708Z,0
2024-01-14T05:10:38.696Z,0
2024-01-14T05:11:38.663Z,0
2024-01-14T05:12:38.704Z,0
2024-01-14T05:13:38.709Z,0
2024-01-14T05:14:38.708Z,0
2024-01-14T05:15:38.704Z,0
2024-01-14T05:16:38.694Z,0
2024-01-14T05:17:38.772Z,0
2024-01-14T05:18:38.793Z,0
2024-01-14T05:19:38.806Z,0
2024-01-14T05:20:38.719Z,0
2024-01-14T05:21:38.732Z,0
2024-01-14T05:22:38.671Z,0
2024-01-14T05:23:38.670Z,0
2024-01-14T05:24:38.680Z,0
2024-01-14T05:25:38.695Z,0
2024-01-14T05:26:38.694Z,0
2024-01-14T05:27:38.699Z,0
2024-01-14T05:28:38.704Z,0
2024-01-14T05:29:38.667Z,0
2024-01-14T05:30:38.843Z,0
2024-01-14T05:31:38.720Z,0
2024-01-14T05:32:38.706Z,0
2024-01-14T05:33:38.785Z,0
2024-01-14T05:34:38.691Z,0
2024-01-14T05:35:38.687Z,0
2024-01-14T05:36:38.685Z,0
2024-01-14T05:37:38.678Z,0
2024-01-14T05:38:38.698Z,0
2024-01-14T05:39:38.682Z,0
2024-01-14T05:40:38.689Z,0
2024-01-14T05:41:38.667Z,0
2024-01-14T05:42:38.684Z,0
2024-01-14T05:43:38.699Z,0
2024-01-14T05:44:38.670Z,0
2024-01-14T05:45:38.711Z,0
2024-01-14T05:46:38.704Z,0
2024-01-14T05:47:38.705Z,0
2024-01-14T05:48:38.777Z,0
2024-01-14T05:49:38.775Z,0
2024-01-14T05:50:38.614Z,0
2024-01-14T05:51:38.702Z,0
2024-01-14T05:52:38.701Z,0
2024-01-14T05:53:41.415Z,0
2024-01-14T05:54:38.684Z,0
2024-01-14T05:55:38.687Z,0
2024-01-14T05:56:38.698Z,0
2024-01-14T05:57:38.734Z,0
2024-01-14T05:58:38.694Z,0
2024-01-14T05:59:38.686Z,0
2024-01-14T06:00:38.745Z,0
2024-01-14T06:01:38.692Z,0
2024-01-14T06:02:38.737Z,0
2024-01-14T06:03:38.715Z,0
2024-01-14T06:04:38.692Z,0
2024-01-14T06:05:38.639Z,0
2024-01-14T06:06:38.885Z,0
2024-01-14T06:07:38.767Z,0
2024-01-14T06:08:38.696Z,0
2024-01-14T06:09:38.690Z,0
2024-01-14T06:10:40.466Z,0
2024-01-14T06:11:38.710Z,0
2024-01-14T06:12:38.749Z,0
2024-01-14T06:13:38.683Z,0
2024-01-14T06:14:38.688Z,0
2024-01-14T06:15:38.821Z,0
2024-01-14T06:16:38.695Z,0
2024-01-14T06:17:38.733Z,0
2024-01-14T06:18:38.855Z,0
2024-01-14T06:19:38.789Z,0
2024-01-14T06:20:38.685Z,0
2024-01-14T06:21:38.687Z,0
2024-01-14T06:22:38.660Z,0
2024-01-14T06:23:38.670Z,0
2024-01-14T06:24:38.845Z,0
2024-01-14T06:25:38.675Z,0
2024-01-14T06:26:38.671Z,0
2024-01-14T06:27:38.694Z,0
2024-01-14T06:28:38.692Z,0
2024-01-14T06:29:38.699Z,0
2024-01-14T06:30:38.747Z,0.1
2024-01-14T06:31:38.678Z,0.1
2024-01-14T06:32:38.667Z,0.1
2024-01-14T06:33:38.797Z,0.1
2024-01-14T06:34:38.899Z,0.1
2024-01-14T06:35:38.662Z,0.1
2024-01-14T06:36:38.706Z,0.1
2024-01-14T06:37:38.680Z,0.1
2024-01-14T06:38:38.670Z,0.1
2024-01-14T06:39:38.673Z,0.1
2024-01-14T06:40:41.316Z,0.1
2024-01-14T06:41:38.688Z,0.2
2024-01-14T06:42:38.718Z,0.2
2024-01-14T06:43:39.101Z,0.2
2024-01-14T06:44:38.682Z,0.2
2024-01-14T06:45:38.682Z,0.2
2024-01-14T06:46:38.667Z,0.2
2024-01-14T06:47:38.719Z,0.2
2024-01-14T06:48:38.779Z,0.3
2024-01-14T06:49:38.788Z,0.3
2024-01-14T06:50:38.676Z,0.3
2024-01-14T06:51:38.700Z,0.3
2024-01-14T06:52:38.679Z,0.3
2024-01-14T06:53:38.680Z,0.3
2024-01-14T06:54:38.803Z,0.4
2024-01-14T06:55:38.684Z,0.4
2024-01-14T06:56:38.659Z,0.4
2024-01-14T06:57:38.712Z,0.4
2024-01-14T06:58:38.683Z,0.4
2024-01-14T06:59:38.642Z,0.5
2024-01-14T07:00:38.824Z,0.5
2024-01-14T07:01:38.721Z,0.5
2024-01-14T07:02:38.668Z,0.6
2024-01-14T07:03:38.769Z,0.6
2024-01-14T07:04:38.816Z,0.6
2024-01-14T07:05:38.707Z,0.7
2024-01-14T07:06:38.724Z,0.7
2024-01-14T07:07:38.657Z,0.8
2024-01-14T07:08:38.687Z,0.9
2024-01-14T07:09:38.730Z,0.9
2024-01-14T07:10:38.719Z,1
2024-01-14T07:11:38.696Z,1
2024-01-14T07:12:38.701Z,1.1
2024-01-14T07:13:38.660Z,1.2
2024-01-14T07:14:38.688Z,0.8
2024-01-14T07:15:39.646Z,1.4
2024-01-14T07:16:38.691Z,1.4
2024-01-14T07:17:54.319Z,1.5
2024-01-14T07:18:38.803Z,1.7
2024-01-14T07:19:38.896Z,1.8
2024-01-14T07:20:38.723Z,1.8
2024-01-14T07:21:38.701Z,1.9
2024-01-14T07:22:38.684Z,2
2024-01-14T07:23:45.447Z,2.1
2024-01-14T07:24:38.694Z,2.1
2024-01-14T07:25:38.686Z,2.2
2024-01-14T07:26:38.697Z,2.2
2024-01-14T07:27:38.764Z,2.2
2024-01-14T07:28:38.671Z,2.1
2024-01-14T07:29:38.697Z,2.1
2024-01-14T07:30:38.768Z,2.1
2024-01-14T07:31:38.718Z,2.1
2024-01-14T07:32:38.697Z,2.3
2024-01-14T07:33:38.821Z,2.3
2024-01-14T07:34:38.806Z,2.4
2024-01-14T07:35:38.670Z,2.5
2024-01-14T07:36:38.738Z,2.5
2024-01-14T07:37:38.688Z,2.6
2024-01-14T07:38:38.653Z,2.7
2024-01-14T07:39:38.747Z,2.7
2024-01-14T07:40:38.676Z,2.8
2024-01-14T07:41:38.687Z,2.9
2024-01-14T07:42:38.694Z,3
2024-01-14T07:43:38.669Z,3.1
2024-01-14T07:44:38.690Z,3.2
2024-01-14T07:45:38.736Z,3.3
2024-01-14T07:46:38.689Z,3.3
2024-01-14T07:47:38.699Z,3.2
2024-01-14T07:48:38.889Z,3.1
2024-01-14T07:49:38.712Z,3
2024-01-14T07:50:38.675Z,2.5
2024-01-14T07:51:38.727Z,2.5
2024-01-14T07:52:38.674Z,3.1
2024-01-14T07:53:38.679Z,2.9
2024-01-14T07:54:38.731Z,2.6
2024-01-14T07:55:38.671Z,2.6
2024-01-14T07:56:38.685Z,2.4
2024-01-14T07:57:38.694Z,2.4
2024-01-14T07:58:38.674Z,2.5
2024-01-14T07:59:38.704Z,2.6
2024-01-14T08:00:45.460Z,2.6
2024-01-14T08:01:38.714Z,2.9
2024-01-14T08:02:38.838Z,2.6
2024-01-14T08:03:38.739Z,3
2024-01-14T08:04:38.786Z,2.9
2024-01-14T08:05:38.684Z,3.1
2024-01-14T08:06:38.711Z,3.1
2024-01-14T08:07:38.687Z,2.9
2024-01-14T08:08:38.673Z,3
2024-01-14T08:09:38.727Z,2.8
2024-01-14T08:10:38.659Z,3.1
2024-01-14T08:11:38.704Z,3.4
2024-01-14T08:12:41.998Z,3.5
2024-01-14T08:13:38.647Z,3.5
2024-01-14T08:14:38.686Z,3.5
2024-01-14T08:15:49.180Z,3.6
2024-01-14T08:16:38.685Z,3.5
2024-01-14T08:17:38.890Z,3.5
2024-01-14T08:18:38.797Z,3.6
2024-01-14T08:19:38.739Z,3.6
2024-01-14T08:20:38.690Z,3.6
2024-01-14T08:21:38.820Z,3.7
2024-01-14T08:22:38.741Z,3.7
2024-01-14T08:23:38.663Z,3.7
2024-01-14T08:24:38.802Z,3.2
2024-01-14T08:25:38.688Z,3.8
2024-01-14T08:26:38.667Z,3.8
2024-01-14T08:27:38.704Z,3.8
2024-01-14T08:28:38.678Z,3.8
2024-01-14T08:29:38.686Z,3.9
2024-01-14T08:30:38.733Z,3.9
2024-01-14T08:31:38.716Z,3.9
2024-01-14T08:32:38.723Z,3.9
2024-01-14T08:33:38.862Z,3.9
2024-01-14T08:34:39.122Z,3.9
2024-01-14T08:35:38.679Z,4
2024-01-14T08:36:38.800Z,4
2024-01-14T08:37:38.678Z,4
2024-01-14T08:38:38.687Z,4
2024-01-14T08:39:38.772Z,4.1
2024-01-14T08:40:38.651Z,4.1
2024-01-14T08:41:38.698Z,4.1
2024-01-14T08:42:38.672Z,4.1
2024-01-14T08:43:38.707Z,4.1
2024-01-14T08:44:38.670Z,4.1
2024-01-14T08:45:38.739Z,4.2
2024-01-14T08:46:38.676Z,4.2
2024-01-14T08:47:38.688Z,4.2
2024-01-14T08:48:38.919Z,4.2
2024-01-14T08:49:38.756Z,4.3
2024-01-14T08:50:38.689Z,4.3
2024-01-14T08:51:38.720Z,4.3
2024-01-14T08:52:38.686Z,4.4
2024-01-14T08:53:38.695Z,4.4
2024-01-14T08:54:38.772Z,4.4
2024-01-14T08:55:38.701Z,4.5
2024-01-14T08:56:38.715Z,4.5
2024-01-14T08:57:38.725Z,4.5
2024-01-14T08:58:38.670Z,4.5
2024-01-14T08:59:38.694Z,4.5
2024-01-14T09:00:38.740Z,4.5
2024-01-14T09:01:38.704Z,4.5
2024-01-14T09:02:38.666Z,4.6
2024-01-14T09:03:38.756Z,4.6
2024-01-14T09:04:38.894Z,4.5
2024-01-14T09:05:38.713Z,4.6
2024-01-14T09:06:38.796Z,4.6
2024-01-14T09:07:38.662Z,4.6
2024-01-14T09:08:38.677Z,4.6
2024-01-14T09:09:38.793Z,4.6
2024-01-14T09:10:38.695Z,4.7
2024-01-14T09:11:38.657Z,4.7
2024-01-14T09:12:38.896Z,4.7
2024-01-14T09:13:38.699Z,4.7
2024-01-14T09:14:38.674Z,4.7
2024-01-14T09:15:38.743Z,4.7
2024-01-14T09:16:38.671Z,4.7
2024-01-14T09:17:38.839Z,4.7
2024-01-14T09:18:38.846Z,4.7
2024-01-14T09:19:38.749Z,4.6
2024-01-14T09:20:38.692Z,4.8
2024-01-14T09:21:38.796Z,4.8
2024-01-14T09:22:38.686Z,4.8
2024-01-14T09:23:38.682Z,4.8
2024-01-14T09:24:38.865Z,4.8
2024-01-14T09:25:38.662Z,4.8
2024-01-14T09:26:38.686Z,4.7
2024-01-14T09:27:38.695Z,4.7
2024-01-14T09:28:38.680Z,4.8
2024-01-14T09:29:38.682Z,4.9
2024-01-14T09:30:38.712Z,5
2024-01-14T09:31:38.708Z,5
2024-01-14T09:32:38.698Z,5
2024-01-14T09:33:38.871Z,5
2024-01-14T09:34:38.800Z,5.1
2024-01-14T09:35:38.665Z,5.1
2024-01-14T09:36:38.759Z,5.1
2024-01-14T09:37:38.669Z,5.1
2024-01-14T09:38:38.697Z,5.1
2024-01-14T09:39:38.735Z,5.1
2024-01-14T09:40:38.643Z,5.1
2024-01-14T09:41:38.689Z,5.1
2024-01-14T09:42:38.779Z,5.1
2024-01-14T09:43:38.694Z,5.1
2024-01-14T09:44:38.694Z,5.2
2024-01-14T09:45:42.526Z,5.2
2024-01-14T09:46:38.661Z,5.3
2024-01-14T09:47:38.711Z,5.4
2024-01-14T09:48:38.844Z,5.5
2024-01-14T09:49:38.832Z,5.6
2024-01-14T09:50:38.686Z,5.7
2024-01-14T09:51:38.736Z,5.7
2024-01-14T09:52:38.733Z,5.3
2024-01-14T09:53:38.725Z,4.6
2024-01-14T09:54:38.788Z,4.9
2024-01-14T09:55:38.693Z,6
2024-01-14T09:56:38.692Z,5.7
2024-01-14T09:57:38.734Z,6.9
2024-01-14T09:58:38.693Z,7.1
2024-01-14T09:59:38.700Z,6
2024-01-14T10:00:38.779Z,5.3
2024-01-14T10:01:38.695Z,5.3
2024-01-14T10:02:38.692Z,7
2024-01-14T10:03:38.696Z,6.9
2024-01-14T10:04:38.778Z,6.4
2024-01-14T10:05:38.884Z,7.3
2024-01-14T10:06:38.826Z,7.1
2024-01-14T10:07:38.787Z,8.3
2024-01-14T10:08:38.698Z,9.6
2024-01-14T10:09:38.756Z,9.6
2024-01-14T10:10:38.665Z,9
2024-01-14T10:11:38.707Z,8.8
2024-01-14T10:12:38.857Z,8
2024-01-14T10:13:38.694Z,8
2024-01-14T10:14:38.680Z,8.7
2024-01-14T10:15:45.715Z,8.6
2024-01-14T10:16:51.759Z,8.7
2024-01-14T10:17:38.688Z,9.7
2024-01-14T10:18:38.743Z,10.8
2024-01-14T10:19:39.007Z,9.3
2024-01-14T10:20:38.671Z,9.5
2024-01-14T10:21:39.250Z,8.9
2024-01-14T10:22:38.643Z,8.6
2024-01-14T10:23:38.677Z,11.1
2024-01-14T10:24:38.730Z,11.1
2024-01-14T10:25:38.701Z,11.6
2024-01-14T10:26:38.681Z,11.4
2024-01-14T10:27:38.895Z,11.5
2024-01-14T10:28:38.724Z,11.9
2024-01-14T10:29:38.648Z,11.4
2024-01-14T10:30:38.888Z,10.9
2024-01-14T10:31:38.772Z,10.4
2024-01-14T10:33:15.514Z,8.8
2024-01-14T10:33:38.820Z,7.7
2024-01-14T10:34:38.935Z,7.5
2024-01-14T10:35:38.865Z,8
2024-01-14T10:36:38.733Z,8.7
2024-01-14T10:37:38.673Z,8.2
2024-01-14T10:38:38.693Z,7.1
2024-01-14T10:39:38.786Z,7
2024-01-14T10:40:38.673Z,7.2
2024-01-14T10:41:38.675Z,7.6
2024-01-14T10:42:38.696Z,7.6
2024-01-14T10:43:38.722Z,6.4
2024-01-14T10:44:38.725Z,8
2024-01-14T10:45:38.715Z,7.9
2024-01-14T10:46:38.652Z,5.9
2024-01-14T10:47:38.717Z,5.9
2024-01-14T10:48:38.777Z,8.2
2024-01-14T10:49:38.677Z,8.3
2024-01-14T10:50:45.106Z,7.9
2024-01-14T10:51:38.674Z,7.4
2024-01-14T10:52:38.702Z,7
2024-01-14T10:53:38.676Z,7.1
2024-01-14T10:54:38.754Z,7
2024-01-14T10:55:38.651Z,6.6
2024-01-14T10:56:38.699Z,6.3
2024-01-14T10:57:38.731Z,6.3
2024-01-14T10:58:38.649Z,6.1
2024-01-14T10:59:38.691Z,6.1
2024-01-14T11:00:38.762Z,5.9
2024-01-14T11:01:38.745Z,5.6
2024-01-14T11:02:38.775Z,5.6
2024-01-14T11:03:38.831Z,5.5
2024-01-14T11:04:38.702Z,5.5
2024-01-14T11:05:38.812Z,5.8
2024-01-14T11:06:38.776Z,5.7
2024-01-14T11:07:38.647Z,5.5
2024-01-14T11:08:38.708Z,5.3
2024-01-14T11:09:38.699Z,5.7
2024-01-14T11:10:38.690Z,5.8
2024-01-14T11:11:38.710Z,6
2024-01-14T11:12:39.588Z,6.1
2024-01-14T11:13:38.700Z,6.2
2024-01-14T11:14:38.707Z,6.2
2024-01-14T11:15:39.315Z,6.2
2024-01-14T11:16:38.661Z,6.2
2024-01-14T11:17:38.708Z,6.2
2024-01-14T11:18:38.880Z,6.1
2024-01-14T11:19:38.892Z,6.1
2024-01-14T11:20:49.473Z,6.1
2024-01-14T11:21:51.837Z,6.1
2024-01-14T11:22:43.554Z,6.1
2024-01-14T11:23:38.749Z,5.9
2024-01-14T11:24:38.799Z,5.1
2024-01-14T11:25:38.695Z,4.8
2024-01-14T11:26:38.652Z,5.6
2024-01-14T11:27:38.702Z,5.8
2024-01-14T11:28:38.681Z,6
2024-01-14T11:29:38.694Z,6
2024-01-14T11:30:38.728Z,6
2024-01-14T11:31:38.738Z,6
2024-01-14T11:32:38.738Z,5.5
2024-01-14T11:33:38.801Z,6
2024-01-14T11:34:38.852Z,6.1
2024-01-14T11:35:38.642Z,6.1
2024-01-14T11:36:38.736Z,5.8
2024-01-14T11:37:38.678Z,6
2024-01-14T11:38:38.667Z,6.1
2024-01-14T11:39:38.760Z,6.2
2024-01-14T11:40:38.652Z,6.2
2024-01-14T11:41:38.662Z,6.2
2024-01-14T11:42:38.771Z,6.2
2024-01-14T11:43:38.688Z,6.2
2024-01-14T11:44:38.688Z,6.2
2024-01-14T11:45:38.726Z,6.1
2024-01-14T11:46:38.683Z,6.1
2024-01-14T11:47:38.729Z,5.9
2024-01-14T11:48:38.880Z,6
2024-01-14T11:49:38.850Z,6
2024-01-14T11:50:38.966Z,6
2024-01-14T11:51:38.731Z,5.9
2024-01-14T11:52:38.679Z,6
2024-01-14T11:53:38.697Z,5.8
2024-01-14T11:54:38.852Z,5.7
2024-01-14T11:55:38.654Z,5.7
2024-01-14T11:56:38.717Z,5.6
2024-01-14T11:57:38.744Z,5.5
2024-01-14T11:58:38.655Z,5.5
2024-01-14T11:59:42.273Z,5.5
2024-01-14T12:00:38.797Z,5.5
2024-01-14T12:01:38.663Z,5.5
2024-01-14T12:02:38.672Z,5.5
2024-01-14T12:03:38.745Z,5.5
2024-01-14T12:04:38.711Z,5.4
2024-01-14T12:05:40.560Z,5.4
2024-01-14T12:06:38.751Z,5.3
2024-01-14T12:07:38.698Z,5.3
2024-01-14T12:08:38.653Z,5.3
2024-01-14T12:09:38.764Z,5.3
2024-01-14T12:10:38.686Z,5.3
2024-01-14T12:11:38.650Z,4.9
2024-01-14T12:12:38.686Z,5.2
2024-01-14T12:13:38.643Z,5.2
2024-01-14T12:14:38.965Z,5
2024-01-14T12:15:40.119Z,4.6
2024-01-14T12:16:38.689Z,5.3
2024-01-14T12:17:38.690Z,5.3
2024-01-14T12:18:40.907Z,5.2
2024-01-14T12:19:38.867Z,5.3
2024-01-14T12:20:38.673Z,5.2
2024-01-14T12:21:38.688Z,5.2
2024-01-14T12:22:38.659Z,5.3
2024-01-14T12:23:38.676Z,5.2
2024-01-14T12:24:38.759Z,5.2
2024-01-14T12:25:38.678Z,5.1
2024-01-14T12:26:38.710Z,5.2
2024-01-14T12:27:38.778Z,5.2
2024-01-14T12:28:38.631Z,5.1
2024-01-14T12:29:38.660Z,5
2024-01-14T12:30:38.844Z,4.8
2024-01-14T12:31:49.780Z,4.6
2024-01-14T12:32:38.781Z,4.6
2024-01-14T12:33:38.778Z,4.7
2024-01-14T12:34:38.754Z,4.8
2024-01-14T12:35:38.725Z,4.9
2024-01-14T12:36:46.028Z,4.9
2024-01-14T12:37:38.678Z,4.9
2024-01-14T12:38:38.684Z,4.8
2024-01-14T12:39:38.739Z,4.8
2024-01-14T12:40:39.111Z,4.8
2024-01-14T12:41:48.766Z,4.7
2024-01-14T12:42:38.888Z,4.5
2024-01-14T12:43:38.675Z,4.4
2024-01-14T12:44:38.642Z,4.4
2024-01-14T12:45:38.718Z,4.4
2024-01-14T12:46:47.868Z,4.3
2024-01-14T12:47:38.687Z,4.3
2024-01-14T12:48:38.742Z,4.4
2024-01-14T12:49:38.690Z,4.4
2024-01-14T12:50:38.919Z,4.5
2024-01-14T12:51:38.745Z,4.5
2024-01-14T12:52:38.669Z,4.4
2024-01-14T12:53:38.717Z,4.3
2024-01-14T12:54:38.728Z,4.2
2024-01-14T12:55:38.682Z,4.5
2024-01-14T12:56:38.693Z,4.5
2024-01-14T12:57:38.732Z,4.6
2024-01-14T12:58:38.686Z,4.6
2024-01-14T12:59:38.720Z,4.6
2024-01-14T13:00:38.721Z,4.6
2024-01-14T13:01:38.722Z,4.5
2024-01-14T13:02:38.778Z,4.6
2024-01-14T13:03:38.752Z,4.6
2024-01-14T13:04:38.677Z,4.5
2024-01-14T13:05:39.011Z,4.6
2024-01-14T13:06:38.676Z,4.5
2024-01-14T13:07:38.700Z,4.5
2024-01-14T13:08:38.703Z,4.4
2024-01-14T13:09:38.714Z,4.3
2024-01-14T13:10:38.679Z,4.4
2024-01-14T13:11:38.691Z,4.4
2024-01-14T13:12:40.538Z,4.4
2024-01-14T13:13:38.699Z,4.2
2024-01-14T13:14:38.680Z,4.1
2024-01-14T13:15:38.694Z,4
2024-01-14T13:16:42.741Z,3.9
2024-01-14T13:17:38.680Z,3.8
2024-01-14T13:18:38.803Z,3.6
2024-01-14T13:19:38.904Z,3.7
2024-01-14T13:20:38.685Z,3.7
2024-01-14T13:21:38.769Z,3.6
2024-01-14T13:22:38.717Z,3.6
2024-01-14T13:23:38.645Z,3.6
2024-01-14T13:24:38.886Z,3.6
2024-01-14T13:25:38.674Z,3.6
2024-01-14T13:26:38.689Z,3.6
2024-01-14T13:27:38.708Z,3.6
2024-01-14T13:28:38.743Z,3.6
2024-01-14T13:29:38.690Z,3.7
2024-01-14T13:30:38.779Z,3.6
2024-01-14T13:31:38.792Z,3.6
2024-01-14T13:32:39.254Z,3.6
2024-01-14T13:33:38.771Z,3.6
2024-01-14T13:34:38.838Z,3.3
2024-01-14T13:35:38.722Z,3.1
2024-01-14T13:36:38.707Z,3.4
2024-01-14T13:37:38.692Z,3.4
2024-01-14T13:38:38.675Z,3.3
2024-01-14T13:39:38.744Z,3.3
2024-01-14T13:40:38.693Z,3.3
2024-01-14T13:41:38.676Z,3.3
2024-01-14T13:42:40.805Z,3.3
2024-01-14T13:43:38.686Z,3.3
2024-01-14T13:44:38.684Z,3.3
2024-01-14T13:45:38.744Z,3.3
2024-01-14T13:46:38.677Z,3.3
2024-01-14T13:47:38.728Z,3.3
2024-01-14T13:48:38.813Z,3.3
2024-01-14T13:49:38.835Z,3.2
2024-01-14T13:50:38.683Z,3.1
2024-01-14T13:51:38.713Z,3
2024-01-14T13:52:38.677Z,3
2024-01-14T13:53:38.685Z,3
2024-01-14T13:54:38.690Z,3
2024-01-14T13:55:38.682Z,3
2024-01-14T13:56:38.683Z,2.9
2024-01-14T13:57:38.732Z,2.9
2024-01-14T13:58:38.673Z,2.9
2024-01-14T13:59:38.684Z,2.8
2024-01-14T14:00:38.757Z,2.8
2024-01-14T14:01:38.763Z,2.8
2024-01-14T14:02:38.689Z,2.8
2024-01-14T14:03:38.775Z,2.8
2024-01-14T14:04:38.804Z,2.9
2024-01-14T14:05:38.845Z,2.8
2024-01-14T14:06:39.651Z,2.8
2024-01-14T14:07:38.987Z,2.7
2024-01-14T14:08:38.690Z,2.7
2024-01-14T14:09:38.719Z,2.7
2024-01-14T14:10:42.374Z,2.6
2024-01-14T14:11:38.775Z,2.6
2024-01-14T14:12:38.720Z,2.5
2024-01-14T14:13:38.699Z,2.6
2024-01-14T14:14:38.669Z,2.5
2024-01-14T14:15:38.760Z,2.4